Pallada — UDUI — position and weather

sailwx.info

Track history (hours):
 
Tides and Currents Weather Stations Pressure Air Temp Water Temp Dewpoint Dewpoint Depression Visibility Wind Speed Wind Dir Waves Ship Positions

Pallada

Last reported at 2017-May-20 08:35 UTC. Time now 2017-Jun-23 20:57 UTC.
Position N 31°03' E 122°06'.
Warning: this ship's position is 34 days out of date.

Length 109 m; draft 7 m.

Type: Sailing vessel. MMSI: 273815200.

Date/timePositionNaut miles runAvg speedWind from/ knotsBaromVisibWave heightAir tempDewpointWater temp
2017-May-20 08:35N 31°03' E 122°06'0 4.7
2017-May-20 08:30N 31°04' E 122°06'2 4.9
2017-May-20 08:00N 31°04' E 122°03'3 5.1
2017-May-20 07:30N 31°05' E 122°00'3 5.2
2017-May-20 06:59N 31°06' E 121°58'3 5.8
2017-May-20 06:30N 31°08' E 121°55'3 6.8
2017-May-20 06:00N 31°10' E 121°52'4 7.7
2017-May-20 05:30N 31°13' E 121°49'4 7.8
2017-May-20 05:00N 31°16' E 121°46'4 7.5
2017-May-20 04:30N 31°18' E 121°43'4 7.3
2017-May-20 04:00N 31°21' E 121°40'4 7.3
2017-May-20 03:30N 31°23' E 121°36'4 7.4
2017-May-20 03:00N 31°24' E 121°32'3 4.8
2017-May-20 02:27N 31°21' E 121°31'3 6.2
2017-May-20 02:00N 31°20' E 121°33'3 6.4
2017-May-20 01:29N 31°17' E 121°34'3 6.1
2017-May-20 01:00N 31°15' E 121°31'1 0.8
2017-May-19 23:21N 31°15' E 121°30'0 0.0
2017-May-19 22:57N 31°15' E 121°30'0 0.0
2017-May-19 22:18N 31°15' E 121°30'0 0.0
2017-May-19 21:51N 31°15' E 121°30'0 0.0
2017-May-19 21:30N 31°15' E 121°30'0 0.0
2017-May-19 20:57N 31°15' E 121°30'0 0.0
2017-May-19 20:21N 31°15' E 121°30'0 0.0
2017-May-19 19:57N 31°15' E 121°30'0 0.0
2017-May-19 19:27N 31°15' E 121°30'0 0.0
2017-May-19 18:57N 31°15' E 121°30'0 0.0
2017-May-19 18:30N 31°15' E 121°30'0 0.0
2017-May-19 18:00N 31°15' E 121°30'0 0.0
2017-May-19 17:27N 31°15' E 121°30'0 0.0
2017-May-19 17:00N 31°15' E 121°30'0 0.0
2017-May-19 16:27N 31°15' E 121°30'0 0.0
2017-May-19 16:00N 31°15' E 121°30'0 0.0
2017-May-19 15:27N 31°15' E 121°30'0 0.0
2017-May-19 14:57N 31°15' E 121°30'0 0.0
2017-May-19 13:57N 31°15' E 121°30'0 0.0
2017-May-19 13:27N 31°15' E 121°30'0 0.0
2017-May-19 12:45N 31°15' E 121°30'0 0.0
2017-May-19 12:21N 31°15' E 121°30'0 0.0
2017-May-19 11:51N 31°15' E 121°30'0 0.0
2017-May-19 11:21N 31°15' E 121°30'0 0.0
2017-May-19 10:45N 31°15' E 121°30'0 0.0
2017-May-19 10:18N 31°15' E 121°30'0 0.0
2017-May-19 09:45N 31°15' E 121°30'0 0.0
2017-May-19 09:21N 31°15' E 121°30'0 0.0
2017-May-19 08:54N 31°15' E 121°30'0 0.0
2017-May-19 08:15N 31°15' E 121°30'0 0.0
2017-May-19 08:00N 31°15' E 121°30'0 0.0
2017-May-19 07:18N 31°15' E 121°30'0 0.0
2017-May-19 07:00N 31°15' E 121°30'0 0.0
2017-May-19 06:27N 31°15' E 121°30'0 0.0
2017-May-19 06:00N 31°15' E 121°30'0 0.0
2017-May-19 05:30N 31°15' E 121°30'0 0.0
2017-May-19 04:51N 31°15' E 121°30'0 0.0
2017-May-19 04:24N 31°15' E 121°30'0 0.0
2017-May-19 03:48N 31°15' E 121°30'0 0.0
2017-May-19 03:24N 31°15' E 121°30'0 0.0
2017-May-19 02:57N 31°15' E 121°30'0 0.0
2017-May-19 02:21N 31°15' E 121°30'0 0.0
2017-May-19 01:57N 31°15' E 121°30'0 0.0
2017-May-19 00:51N 31°15' E 121°30'0 0.0
2017-May-19 00:27N 31°15' E 121°30'0 0.0
2017-May-18 23:57N 31°15' E 121°30'0 0.0
2017-May-18 23:30N 31°15' E 121°30'0 0.0
2017-May-18 22:51N 31°15' E 121°30'0 0.0
2017-May-18 22:03N 31°15' E 121°30'0 0.0
2017-May-18 21:51N 31°15' E 121°30'0 0.0
2017-May-18 21:27N 31°15' E 121°30'0 0.0
2017-May-18 20:57N 31°15' E 121°30'0 0.0
2017-May-18 20:27N 31°15' E 121°30'0 0.0
2017-May-18 19:57N 31°15' E 121°30'0 0.0
2017-May-18 19:21N 31°15' E 121°30'0 0.0
2017-May-18 18:57N 31°15' E 121°30'0 0.0
2017-May-18 18:27N 31°15' E 121°30'0 0.0
2017-May-18 17:27N 31°15' E 121°30'0 0.0
2017-May-18 16:33N 31°15' E 121°30'0 0.1
2017-May-18 16:27N 31°15' E 121°30'0 0.0
2017-May-18 15:51N 31°15' E 121°30'0 0.0
2017-May-18 15:27N 31°15' E 121°30'0 0.0
2017-May-18 15:00N 31°15' E 121°30'0 0.0
2017-May-18 14:28N 31°15' E 121°30'0 0.0
2017-May-18 13:16N 31°15' E 121°30'0 0.0
2017-May-18 12:58N 31°15' E 121°30'0 0.0
2017-May-18 12:28N 31°15' E 121°30'0 0.0
2017-May-18 11:52N 31°15' E 121°30'0 0.0
2017-May-18 11:27N 31°15' E 121°30'0 0.0
2017-May-18 10:58N 31°15' E 121°30'0 0.0
2017-May-18 10:09N 31°15' E 121°30'0 0.0
2017-May-18 09:37N 31°15' E 121°30'0 0.0
2017-May-18 09:13N 31°15' E 121°30'0 0.0
2017-May-18 08:18N 31°15' E 121°30'0 0.0
2017-May-18 07:54N 31°15' E 121°30'0 0.0
2017-May-18 07:30N 31°15' E 121°30'0 0.0
2017-May-18 06:30N 31°15' E 121°30'0 0.0
2017-May-18 05:24N 31°15' E 121°30'0 0.0
2017-May-18 04:54N 31°15' E 121°30'0 0.0
2017-May-18 04:30N 31°15' E 121°30'0 0.0
2017-May-18 03:36N 31°15' E 121°30'0 0.0
2017-May-18 01:30N 31°15' E 121°30'0 0.0
2017-May-18 01:00N 31°15' E 121°30'0 0.0
2017-May-18 00:30N 31°15' E 121°30'0 0.0
2017-May-17 23:48N 31°15' E 121°30'0 0.0
2017-May-17 23:30N 31°15' E 121°30'0 0.0
2017-May-17 22:57N 31°15' E 121°30'0 0.0
2017-May-17 22:30N 31°15' E 121°30'0 0.0
2017-May-17 22:00N 31°15' E 121°30'0 0.0
2017-May-17 21:30N 31°15' E 121°30'0 0.0
2017-May-17 20:57N 31°15' E 121°30'0 0.0
2017-May-17 20:30N 31°15' E 121°30'0 0.0
2017-May-17 19:54N 31°15' E 121°30'0 0.0
2017-May-17 19:30N 31°15' E 121°30'0 0.0
2017-May-17 19:00N 31°15' E 121°30'0 0.0
2017-May-17 18:24N 31°15' E 121°30'0 0.0
2017-May-17 18:00N 31°15' E 121°30'0 0.0
2017-May-17 17:06N 31°15' E 121°30'0 0.0
2017-May-17 17:00N 31°15' E 121°30'0 0.0
2017-May-17 16:12N 31°15' E 121°30'0 0.0
2017-May-17 15:48N 31°15' E 121°30'0 0.0
2017-May-17 15:30N 31°15' E 121°30'0 0.0
2017-May-17 15:00N 31°15' E 121°30'0 0.0
2017-May-17 13:55N 31°15' E 121°30'0 0.0
2017-May-17 12:58N 31°15' E 121°30'0 0.0
2017-May-17 12:28N 31°15' E 121°30'0 0.9
2017-May-17 12:00N 31°15' E 121°30'3 5.1
2017-May-17 11:30N 31°16' E 121°33'4 5.8
2017-May-17 10:52N 31°19' E 121°33'3 5.8
2017-May-17 10:21N 31°21' E 121°31'2 5.0
2017-May-17 09:59N 31°23' E 121°30'3 5.8
2017-May-17 09:30N 31°24' E 121°33'4 7.5
2017-May-17 09:00N 31°22' E 121°37'4 8.0
2017-May-17 08:30N 31°20' E 121°41'4 8.7
2017-May-17 08:00N 31°17' E 121°45'5 9.2
2017-May-17 07:30N 31°14' E 121°48'5 9.3
2017-May-17 07:00N 31°10' E 121°52'5 9.2
2017-May-17 06:30N 31°08' E 121°56'5 9.0
2017-May-17 06:00N 31°05' E 122°01'4 8.8
2017-May-17 05:30N 31°04' E 122°06'5 8.9
2017-May-17 04:58N 31°03' E 122°11'4 8.3
2017-May-17 04:29N 31°03' E 122°16'14 3.9
2017-May-17 00:58N 31°05' E 122°32'4 4.9
2017-May-17 00:11N 31°07' E 122°35'2 6.8
2017-May-16 23:52N 31°09' E 122°36'1 0.1
2017-May-16 12:56N 31°10' E 122°38'0 0.0
2017-May-16 11:32N 31°10' E 122°38'0 0.0
2017-May-16 11:14N 31°10' E 122°38'0 0.0
2017-May-16 10:32N 31°10' E 122°38'0 0.1
2017-May-16 10:26N 31°10' E 122°38'0 0.0
2017-May-16 09:55N 31°10' E 122°38'0 0.0
2017-May-16 09:29N 31°10' E 122°38'0 0.0
2017-May-16 07:49N 31°10' E 122°38'6 1.1
2017-May-16 01:56N 31°12' E 122°45'3 6.0
2017-May-16 01:30N 31°13' E 122°48'3 6.1
2017-May-16 01:00N 31°14' E 122°51'3 6.5
2017-May-16 00:30N 31°16' E 122°54'3 6.1
2017-May-16 00:00N 31°17' E 122°57'4 6.2
2017-May-15 23:24N 31°19' E 123°01'3 6.5
2017-May-15 22:56N 31°20' E 123°05'3 6.6
2017-May-15 22:29N 31°21' E 123°08'3 6.3
2017-May-15 22:00N 31°23' E 123°11'4 5.8
2017-May-15 21:21N 31°25' E 123°15'2 5.7
2017-May-15 20:58N 31°26' E 123°17'4 5.8
2017-May-15 20:19N 31°27' E 123°21'3 5.7
2017-May-15 19:51N 31°29' E 123°24'2 5.9
2017-May-15 19:29N 31°30' E 123°26'4 6.0
2017-May-15 18:52N 31°31' E 123°30'2 6.0
2017-May-15 18:30N 31°32' E 123°32'3 6.1
2017-May-15 18:00N 31°34' E 123°35'3 5.8
2017-May-15 17:29N 31°35' E 123°38'3 5.4
2017-May-15 16:59N 31°37' E 123°41'3 5.5
2017-May-15 16:29N 31°38' E 123°44'3 5.8
2017-May-15 16:00N 31°39' E 123°47'3 6.2
2017-May-15 15:30N 31°40' E 123°50'4 6.9
2017-May-15 14:54N 31°41' E 123°55'7 7.5
2017-May-15 13:54N 31°44' E 124°03'  
Track history (hours):
 
Tides and Currents Weather Stations Pressure Air Temp Water Temp Dewpoint Dewpoint Depression Visibility Wind Speed Wind Dir Waves Ship Positions

Pallada

Last reported at 2017-May-20 08:35 UTC. Time now 2017-Jun-23 20:57 UTC.
Position N 31°03' E 122°06'.
Warning: this ship's position is 34 days out of date.

Length 109 m; draft 7 m.

Type: Sailing vessel. MMSI: 273815200.

Date/timePositionNaut miles runAvg speedWind from/ knotsBaromVisibWave heightAir tempDewpointWater temp
2017-May-20 08:35N 31°03' E 122°06'0 4.7
2017-May-20 08:30N 31°04' E 122°06'2 4.9
2017-May-20 08:00N 31°04' E 122°03'3 5.1
2017-May-20 07:30N 31°05' E 122°00'3 5.2
2017-May-20 06:59N 31°06' E 121°58'3 5.8
2017-May-20 06:30N 31°08' E 121°55'3 6.8
2017-May-20 06:00N 31°10' E 121°52'4 7.7
2017-May-20 05:30N 31°13' E 121°49'4 7.8
2017-May-20 05:00N 31°16' E 121°46'4 7.5
2017-May-20 04:30N 31°18' E 121°43'4 7.3
2017-May-20 04:00N 31°21' E 121°40'4 7.3
2017-May-20 03:30N 31°23' E 121°36'4 7.4
2017-May-20 03:00N 31°24' E 121°32'3 4.8
2017-May-20 02:27N 31°21' E 121°31'3 6.2
2017-May-20 02:00N 31°20' E 121°33'3 6.4
2017-May-20 01:29N 31°17' E 121°34'3 6.1
2017-May-20 01:00N 31°15' E 121°31'1 0.8
2017-May-19 23:21N 31°15' E 121°30'0 0.0
2017-May-19 22:57N 31°15' E 121°30'0 0.0
2017-May-19 22:18N 31°15' E 121°30'0 0.0
2017-May-19 21:51N 31°15' E 121°30'0 0.0
2017-May-19 21:30N 31°15' E 121°30'0 0.0
2017-May-19 20:57N 31°15' E 121°30'0 0.0
2017-May-19 20:21N 31°15' E 121°30'0 0.0
2017-May-19 19:57N 31°15' E 121°30'0 0.0
2017-May-19 19:27N 31°15' E 121°30'0 0.0
2017-May-19 18:57N 31°15' E 121°30'0 0.0
2017-May-19 18:30N 31°15' E 121°30'0 0.0
2017-May-19 18:00N 31°15' E 121°30'0 0.0
2017-May-19 17:27N 31°15' E 121°30'0 0.0
2017-May-19 17:00N 31°15' E 121°30'0 0.0
2017-May-19 16:27N 31°15' E 121°30'0 0.0
2017-May-19 16:00N 31°15' E 121°30'0 0.0
2017-May-19 15:27N 31°15' E 121°30'0 0.0
2017-May-19 14:57N 31°15' E 121°30'0 0.0
2017-May-19 13:57N 31°15' E 121°30'0 0.0
2017-May-19 13:27N 31°15' E 121°30'0 0.0
2017-May-19 12:45N 31°15' E 121°30'0 0.0
2017-May-19 12:21N 31°15' E 121°30'0 0.0
2017-May-19 11:51N 31°15' E 121°30'0 0.0
2017-May-19 11:21N 31°15' E 121°30'0 0.0
2017-May-19 10:45N 31°15' E 121°30'0 0.0
2017-May-19 10:18N 31°15' E 121°30'0 0.0
2017-May-19 09:45N 31°15' E 121°30'0 0.0
2017-May-19 09:21N 31°15' E 121°30'0 0.0
2017-May-19 08:54N 31°15' E 121°30'0 0.0
2017-May-19 08:15N 31°15' E 121°30'0 0.0
2017-May-19 08:00N 31°15' E 121°30'0 0.0
2017-May-19 07:18N 31°15' E 121°30'0 0.0
2017-May-19 07:00N 31°15' E 121°30'0 0.0
2017-May-19 06:27N 31°15' E 121°30'0 0.0
2017-May-19 06:00N 31°15' E 121°30'0 0.0
2017-May-19 05:30N 31°15' E 121°30'0 0.0
2017-May-19 04:51N 31°15' E 121°30'0 0.0
2017-May-19 04:24N 31°15' E 121°30'0 0.0
2017-May-19 03:48N 31°15' E 121°30'0 0.0
2017-May-19 03:24N 31°15' E 121°30'0 0.0
2017-May-19 02:57N 31°15' E 121°30'0 0.0
2017-May-19 02:21N 31°15' E 121°30'0 0.0
2017-May-19 01:57N 31°15' E 121°30'0 0.0
2017-May-19 00:51N 31°15' E 121°30'0 0.0
2017-May-19 00:27N 31°15' E 121°30'0 0.0
2017-May-18 23:57N 31°15' E 121°30'0 0.0
2017-May-18 23:30N 31°15' E 121°30'0 0.0
2017-May-18 22:51N 31°15' E 121°30'0 0.0
2017-May-18 22:03N 31°15' E 121°30'0 0.0
2017-May-18 21:51N 31°15' E 121°30'0 0.0
2017-May-18 21:27N 31°15' E 121°30'0 0.0
2017-May-18 20:57N 31°15' E 121°30'0 0.0
2017-May-18 20:27N 31°15' E 121°30'0 0.0
2017-May-18 19:57N 31°15' E 121°30'0 0.0
2017-May-18 19:21N 31°15' E 121°30'0 0.0
2017-May-18 18:57N 31°15' E 121°30'0 0.0
2017-May-18 18:27N 31°15' E 121°30'0 0.0
2017-May-18 17:27N 31°15' E 121°30'0 0.0
2017-May-18 16:33N 31°15' E 121°30'0 0.1
2017-May-18 16:27N 31°15' E 121°30'0 0.0
2017-May-18 15:51N 31°15' E 121°30'0 0.0
2017-May-18 15:27N 31°15' E 121°30'0 0.0
2017-May-18 15:00N 31°15' E 121°30'0 0.0
2017-May-18 14:28N 31°15' E 121°30'0 0.0
2017-May-18 13:16N 31°15' E 121°30'0 0.0
2017-May-18 12:58N 31°15' E 121°30'0 0.0
2017-May-18 12:28N 31°15' E 121°30'0 0.0
2017-May-18 11:52N 31°15' E 121°30'0 0.0
2017-May-18 11:27N 31°15' E 121°30'0 0.0
2017-May-18 10:58N 31°15' E 121°30'0 0.0
2017-May-18 10:09N 31°15' E 121°30'0 0.0
2017-May-18 09:37N 31°15' E 121°30'0 0.0
2017-May-18 09:13N 31°15' E 121°30'0 0.0
2017-May-18 08:18N 31°15' E 121°30'0 0.0
2017-May-18 07:54N 31°15' E 121°30'0 0.0
2017-May-18 07:30N 31°15' E 121°30'0 0.0
2017-May-18 06:30N 31°15' E 121°30'0 0.0
2017-May-18 05:24N 31°15' E 121°30'0 0.0
2017-May-18 04:54N 31°15' E 121°30'0 0.0
2017-May-18 04:30N 31°15' E 121°30'0 0.0
2017-May-18 03:36N 31°15' E 121°30'0 0.0
2017-May-18 01:30N 31°15' E 121°30'0 0.0
2017-May-18 01:00N 31°15' E 121°30'0 0.0
2017-May-18 00:30N 31°15' E 121°30'0 0.0
2017-May-17 23:48N 31°15' E 121°30'0 0.0
2017-May-17 23:30N 31°15' E 121°30'0 0.0
2017-May-17 22:57N 31°15' E 121°30'0 0.0
2017-May-17 22:30N 31°15' E 121°30'0 0.0
2017-May-17 22:00N 31°15' E 121°30'0 0.0
2017-May-17 21:30N 31°15' E 121°30'0 0.0
2017-May-17 20:57N 31°15' E 121°30'0 0.0
2017-May-17 20:30N 31°15' E 121°30'0 0.0
2017-May-17 19:54N 31°15' E 121°30'0 0.0
2017-May-17 19:30N 31°15' E 121°30'0 0.0
2017-May-17 19:00N 31°15' E 121°30'0 0.0
2017-May-17 18:24N 31°15' E 121°30'0 0.0
2017-May-17 18:00N 31°15' E 121°30'0 0.0
2017-May-17 17:06N 31°15' E 121°30'0 0.0
2017-May-17 17:00N 31°15' E 121°30'0 0.0
2017-May-17 16:12N 31°15' E 121°30'0 0.0
2017-May-17 15:48N 31°15' E 121°30'0 0.0
2017-May-17 15:30N 31°15' E 121°30'0 0.0
2017-May-17 15:00N 31°15' E 121°30'0 0.0
2017-May-17 13:55N 31°15' E 121°30'0 0.0
2017-May-17 12:58N 31°15' E 121°30'0 0.0
2017-May-17 12:28N 31°15' E 121°30'0 0.9
2017-May-17 12:00N 31°15' E 121°30'3 5.1
2017-May-17 11:30N 31°16' E 121°33'4 5.8
2017-May-17 10:52N 31°19' E 121°33'3 5.8
2017-May-17 10:21N 31°21' E 121°31'2 5.0
2017-May-17 09:59N 31°23' E 121°30'3 5.8
2017-May-17 09:30N 31°24' E 121°33'4 7.5
2017-May-17 09:00N 31°22' E 121°37'4 8.0
2017-May-17 08:30N 31°20' E 121°41'4 8.7
2017-May-17 08:00N 31°17' E 121°45'5 9.2
2017-May-17 07:30N 31°14' E 121°48'5 9.3
2017-May-17 07:00N 31°10' E 121°52'5 9.2
2017-May-17 06:30N 31°08' E 121°56'5 9.0
2017-May-17 06:00N 31°05' E 122°01'4 8.8
2017-May-17 05:30N 31°04' E 122°06'5 8.9
2017-May-17 04:58N 31°03' E 122°11'4 8.3
2017-May-17 04:29N 31°03' E 122°16'14 3.9
2017-May-17 00:58N 31°05' E 122°32'4 4.9
2017-May-17 00:11N 31°07' E 122°35'2 6.8
2017-May-16 23:52N 31°09' E 122°36'1 0.1
2017-May-16 12:56N 31°10' E 122°38'0 0.0
2017-May-16 11:32N 31°10' E 122°38'0 0.0
2017-May-16 11:14N 31°10' E 122°38'0 0.0
2017-May-16 10:32N 31°10' E 122°38'0 0.1
2017-May-16 10:26N 31°10' E 122°38'0 0.0
2017-May-16 09:55N 31°10' E 122°38'0 0.0
2017-May-16 09:29N 31°10' E 122°38'0 0.0
2017-May-16 07:49N 31°10' E 122°38'6 1.1
2017-May-16 01:56N 31°12' E 122°45'3 6.0
2017-May-16 01:30N 31°13' E 122°48'3 6.1
2017-May-16 01:00N 31°14' E 122°51'3 6.5
2017-May-16 00:30N 31°16' E 122°54'3 6.1
2017-May-16 00:00N 31°17' E 122°57'4 6.2
2017-May-15 23:24N 31°19' E 123°01'3 6.5
2017-May-15 22:56N 31°20' E 123°05'3 6.6
2017-May-15 22:29N 31°21' E 123°08'3 6.3
2017-May-15 22:00N 31°23' E 123°11'4 5.8
2017-May-15 21:21N 31°25' E 123°15'2 5.7
2017-May-15 20:58N 31°26' E 123°17'4 5.8
2017-May-15 20:19N 31°27' E 123°21'3 5.7
2017-May-15 19:51N 31°29' E 123°24'2 5.9
2017-May-15 19:29N 31°30' E 123°26'4 6.0
2017-May-15 18:52N 31°31' E 123°30'2 6.0
2017-May-15 18:30N 31°32' E 123°32'3 6.1
2017-May-15 18:00N 31°34' E 123°35'3 5.8
2017-May-15 17:29N 31°35' E 123°38'3 5.4
2017-May-15 16:59N 31°37' E 123°41'3 5.5
2017-May-15 16:29N 31°38' E 123°44'3 5.8
2017-May-15 16:00N 31°39' E 123°47'3 6.2
2017-May-15 15:30N 31°40' E 123°50'4 6.9
2017-May-15 14:54N 31°41' E 123°55'7 7.5
2017-May-15 13:54N 31°44' E 124°03'  

Dump ship's entire track history